Time;durP1;ratioP1;P1;durP2;ratioP2;P2;SDS_P1;SDS_P2;PMS_P1;PMS_P2;Temp;Humidity;BMP_temperature;BMP_pressure;BME280_temperature;BME280_humidity;BME280_pressure;Samples;Min_cycle;Max_cycle;Signal;HPM_P1;HPM_P2
2021/12/24 00:00:19;;;;;;;114.28;33.50;;;3.40;99.90;;;;;;5037558;28;20086;-77
2021/12/24 00:02:45;;;;;;;74.25;28.50;;;3.40;99.90;;;;;;5054886;28;20393;-75
2021/12/24 00:05:11;;;;;;;90.03;30.98;;;3.40;99.90;;;;;;5009888;28;20041;-78
2021/12/24 00:07:37;;;;;;;92.00;31.55;;;3.50;99.90;;;;;;5055979;28;20040;-76
2021/12/24 00:10:06;;;;;;;78.97;31.40;;;3.50;99.90;;;;;;5031226;28;20229;-76
2021/12/24 00:12:35;;;;;;;66.40;27.30;;;3.50;99.90;;;;;;5034175;28;20021;-75
2021/12/24 00:15:10;;;;;;;57.13;24.27;;;3.60;99.90;;;;;;5033819;28;20021;-76
2021/12/24 00:17:37;;;;;;;62.58;28.30;;;3.70;99.90;;;;;;5036814;28;20439;-76
2021/12/24 00:20:41;;;;;;;60.45;26.13;;;3.70;99.90;;;;;;5029628;28;20013;-78
2021/12/24 00:23:28;;;;;;;61.28;26.90;;;3.70;99.90;;;;;;5039096;28;20021;-76
2021/12/24 00:36:45;;;;;;;43.33;21.00;;;3.70;99.90;;;;;;5035736;28;20055;-74
2021/12/24 00:39:11;;;;;;;36.45;18.45;;;3.80;99.90;;;;;;5038966;28;20029;-78
2021/12/24 00:41:36;;;;;;;45.17;20.60;;;3.80;99.90;;;;;;5049704;28;20461;-74
2021/12/24 00:44:02;;;;;;;36.13;19.23;;;3.80;99.90;;;;;;5037894;28;20029;-77
2021/12/24 00:46:27;;;;;;;33.35;17.45;;;3.80;99.90;;;;;;5047558;28;20489;-77
2021/12/24 00:48:55;;;;;;;38.97;19.27;;;3.80;99.90;;;;;;5034844;28;20025;-76
2021/12/24 00:51:30;;;;;;;33.63;17.67;;;3.80;99.90;;;;;;5047565;28;20064;-75
2021/12/24 00:56:40;;;;;;;34.47;16.27;;;3.90;99.90;;;;;;5035147;28;20135;-75
2021/12/24 00:59:05;;;;;;;36.72;18.75;;;3.80;99.90;;;;;;5036137;28;20377;-78
2021/12/24 01:01:31;;;;;;;33.63;17.50;;;3.90;99.90;;;;;;5043659;28;20472;-76
2021/12/24 01:03:56;;;;;;;39.40;17.73;;;3.90;99.90;;;;;;5015150;28;20377;-73
2021/12/24 01:06:22;;;;;;;35.10;17.75;;;3.80;99.90;;;;;;5033711;28;20073;-76
2021/12/24 01:08:47;;;;;;;28.75;13.32;;;3.90;99.90;;;;;;5039455;28;20065;-75
2021/12/24 01:11:13;;;;;;;26.23;14.52;;;3.90;99.90;;;;;;5045321;28;20044;-75
2021/12/24 01:13:40;;;;;;;30.50;16.08;;;3.90;99.90;;;;;;5036343;28;20108;-75
2021/12/24 01:16:16;;;;;;;28.05;15.15;;;3.90;99.90;;;;;;5022858;28;20389;-77
2021/12/24 01:18:59;;;;;;;27.83;15.57;;;3.90;99.90;;;;;;5042264;28;20462;-74
2021/12/24 01:24:17;;;;;;;26.63;14.68;;;3.90;99.90;;;;;;5036626;28;20045;-78
2021/12/24 01:26:54;;;;;;;23.85;13.80;;;3.90;99.90;;;;;;5032112;28;20223;-75
2021/12/24 01:29:40;;;;;;;24.35;13.73;;;3.90;99.90;;;;;;5031186;28;20088;-76
2021/12/24 01:41:06;;;;;;;26.40;13.10;;;3.90;99.90;;;;;;5028195;28;20144;-75
2021/12/24 01:43:32;;;;;;;28.90;13.20;;;3.90;99.90;;;;;;5033313;28;20551;-74
2021/12/24 01:46:00;;;;;;;25.55;13.00;;;4.00;99.90;;;;;;5031168;28;20037;-77
2021/12/24 01:48:25;;;;;;;27.05;12.38;;;4.00;99.90;;;;;;5028205;28;20069;-74
2021/12/24 01:50:53;;;;;;;23.83;13.00;;;3.90;99.90;;;;;;5032930;28;20068;-77
2021/12/24 01:53:21;;;;;;;27.23;13.43;;;4.00;99.90;;;;;;5030042;28;20037;-76
2021/12/24 01:55:50;;;;;;;30.77;13.18;;;4.00;99.90;;;;;;5030479;28;20353;-76
2021/12/24 01:58:23;;;;;;;26.65;13.02;;;4.00;99.90;;;;;;5032782;28;20017;-75
2021/12/24 02:00:50;;;;;;;24.17;11.93;;;4.00;99.90;;;;;;5035592;28;20223;-74
2021/12/24 02:03:17;;;;;;;25.08;11.93;;;4.00;99.90;;;;;;5031466;28;20111;-77
2021/12/24 02:05:44;;;;;;;23.08;12.52;;;4.10;99.90;;;;;;5014903;28;20344;-75
2021/12/24 02:08:10;;;;;;;23.45;12.20;;;4.00;99.90;;;;;;5036918;28;20039;-76
2021/12/24 02:10:37;;;;;;;21.20;12.32;;;4.10;99.90;;;;;;5031788;28;20037;-75
2021/12/24 02:13:03;;;;;;;21.52;11.77;;;4.10;99.90;;;;;;5035218;28;20025;-75
2021/12/24 02:18:32;;;;;;;21.23;11.65;;;4.00;99.90;;;;;;5034800;28;20048;-79
2021/12/24 02:29:15;;;;;;;21.77;10.95;;;4.10;99.90;;;;;;5040035;28;20093;-76
2021/12/24 02:31:40;;;;;;;27.05;10.93;;;4.00;99.90;;;;;;5033717;28;20032;-75
2021/12/24 02:34:06;;;;;;;26.92;11.90;;;4.00;99.90;;;;;;5046318;28;20021;-76
2021/12/24 02:36:32;;;;;;;23.17;11.10;;;4.00;99.90;;;;;;5038736;28;20089;-76
2021/12/24 02:38:58;;;;;;;24.27;11.77;;;4.00;99.90;;;;;;5037332;28;20040;-77
2021/12/24 02:41:23;;;;;;;22.90;11.32;;;4.00;99.90;;;;;;5042070;28;20033;-74
2021/12/24 02:43:50;;;;;;;23.52;11.98;;;4.00;99.90;;;;;;5034633;28;20032;-74
2021/12/24 02:46:28;;;;;;;22.55;11.55;;;4.00;99.90;;;;;;5037053;28;20338;-75
2021/12/24 02:54:05;;;;;;;24.48;11.25;;;4.10;99.90;;;;;;5035226;28;20075;-75
2021/12/24 02:56:34;;;;;;;24.77;11.38;;;4.10;99.90;;;;;;5028200;28;20029;-78
2021/12/24 02:59:03;;;;;;;26.30;12.57;;;4.10;99.90;;;;;;5030844;28;20059;-80
2021/12/24 03:01:41;;;;;;;24.85;12.25;;;4.10;99.90;;;;;;5026344;28;20029;-76
2021/12/24 03:04:08;;;;;;;25.90;12.88;;;4.10;99.90;;;;;;5029573;28;20192;-78
2021/12/24 03:06:36;;;;;;;27.67;12.52;;;4.10;99.90;;;;;;5023330;28;20044;-77
2021/12/24 03:09:08;;;;;;;21.08;10.57;;;4.10;99.90;;;;;;5035818;28;20025;-76
2021/12/24 03:11:35;;;;;;;23.15;11.30;;;4.10;99.90;;;;;;5025488;28;20049;-80
2021/12/24 03:14:06;;;;;;;24.38;10.95;;;4.10;99.90;;;;;;5034660;28;20051;-77
2021/12/24 03:16:32;;;;;;;18.67;10.45;;;4.20;99.90;;;;;;5033469;28;20033;-75
2021/12/24 03:18:57;;;;;;;23.27;11.32;;;4.20;99.90;;;;;;5041180;28;20029;-74
2021/12/24 03:21:35;;;;;;;18.60;10.02;;;4.20;99.90;;;;;;5034514;28;20029;-76
2021/12/24 03:26:28;;;;;;;21.38;10.32;;;4.30;99.90;;;;;;5028115;28;20055;-80
2021/12/24 03:28:53;;;;;;;19.25;9.48;;;4.30;99.90;;;;;;5033841;28;20025;-76
2021/12/24 03:31:19;;;;;;;20.05;10.00;;;4.30;99.90;;;;;;5034583;28;20036;-78
2021/12/24 03:33:45;;;;;;;17.52;9.30;;;4.20;99.90;;;;;;5032758;28;20397;-75
2021/12/24 03:36:10;;;;;;;22.13;10.52;;;4.30;99.90;;;;;;5036291;28;20112;-75
2021/12/24 03:38:37;;;;;;;18.33;9.80;;;4.30;99.90;;;;;;5032743;28;20025;-77
2021/12/24 03:41:04;;;;;;;19.10;9.70;;;4.30;99.90;;;;;;5029004;28;20037;-75
2021/12/24 03:43:30;;;;;;;18.30;9.73;;;4.30;99.90;;;;;;5028704;28;20101;-74
2021/12/24 03:46:01;;;;;;;20.00;10.32;;;4.40;99.90;;;;;;5030209;28;20037;-77
2021/12/24 03:48:53;;;;;;;24.40;10.13;;;4.40;99.90;;;;;;5034715;28;20123;-75
2021/12/24 03:51:30;;;;;;;19.60;10.13;;;4.40;99.90;;;;;;5034580;28;20037;-76
2021/12/24 03:56:41;;;;;;;24.23;10.68;;;4.40;99.90;;;;;;5031058;28;20491;-74
2021/12/24 03:59:07;;;;;;;26.25;10.60;;;4.40;99.90;;;;;;5035700;28;20053;-76
2021/12/24 04:01:34;;;;;;;24.00;10.63;;;4.40;99.90;;;;;;5026691;28;20125;-78
2021/12/24 04:04:00;;;;;;;23.98;11.07;;;4.40;99.90;;;;;;5043937;28;20082;-76
2021/12/24 04:06:26;;;;;;;23.80;10.68;;;4.40;99.90;;;;;;5017193;28;20045;-75
2021/12/24 04:08:51;;;;;;;17.65;9.38;;;4.40;99.90;;;;;;5033410;28;20029;-77
2021/12/24 04:11:17;;;;;;;19.08;9.23;;;4.50;99.90;;;;;;5032042;28;20042;-76
2021/12/24 04:13:42;;;;;;;23.33;9.85;;;4.50;99.90;;;;;;5030697;28;20559;-75
2021/12/24 04:16:08;;;;;;;20.23;9.38;;;4.50;99.90;;;;;;5036587;28;20037;-77
2021/12/24 04:24:51;;;;;;;19.60;8.65;;;4.50;99.90;;;;;;5028282;28;20524;-74
2021/12/24 04:26:53;;;;;;;13.27;6.70;;;4.50;99.90;;;;;;5031163;28;20041;-75
2021/12/24 04:29:18;;;;;;;20.10;8.38;;;4.60;99.90;;;;;;5033005;28;20110;-74
2021/12/24 04:31:52;;;;;;;13.30;7.25;;;4.60;99.90;;;;;;5029405;28;20052;-76
2021/12/24 04:34:24;;;;;;;15.80;7.53;;;4.60;99.90;;;;;;5032138;28;20037;-73
2021/12/24 04:37:46;;;;;;;14.88;7.78;;;4.60;99.90;;;;;;5045178;28;20142;-75
2021/12/24 05:01:41;;;;;;;12.75;6.50;;;4.60;99.90;;;;;;5031973;28;21346;-75
2021/12/24 05:04:09;;;;;;;10.75;5.93;;;4.70;99.90;;;;;;5033037;28;20021;-75
2021/12/24 05:06:40;;;;;;;11.05;5.63;;;4.60;99.90;;;;;;5012322;28;20049;-74
2021/12/24 05:09:09;;;;;;;11.63;6.13;;;4.70;99.90;;;;;;5058082;28;20041;-75
2021/12/24 05:11:36;;;;;;;12.35;5.93;;;4.70;99.90;;;;;;5033906;28;20108;-77
2021/12/24 05:14:03;;;;;;;11.10;5.60;;;4.70;99.90;;;;;;5047928;28;20033;-81
2021/12/24 05:21:56;;;;;;;12.20;5.90;;;4.60;99.90;;;;;;5027939;28;20044;-74
2021/12/24 05:24:25;;;;;;;12.27;5.85;;;4.60;99.90;;;;;;5041481;28;20025;-75
2021/12/24 05:26:54;;;;;;;11.57;6.00;;;4.70;99.90;;;;;;5018745;28;20075;-74
2021/12/24 05:29:20;;;;;;;13.40;6.20;;;4.70;99.90;;;;;;5032611;28;20123;-73
2021/12/24 05:31:46;;;;;;;13.68;6.22;;;4.70;99.90;;;;;;5035629;28;20478;-77
2021/12/24 05:34:14;;;;;;;12.23;5.82;;;4.70;99.90;;;;;;5035048;28;20508;-73
2021/12/24 05:36:41;;;;;;;13.63;6.68;;;4.70;99.90;;;;;;5041373;28;20021;-75
2021/12/24 05:39:06;;;;;;;12.60;6.78;;;4.70;99.90;;;;;;5035324;28;20112;-78
2021/12/24 05:41:32;;;;;;;13.52;6.70;;;4.70;99.90;;;;;;5038442;28;20366;-77
2021/12/24 05:43:59;;;;;;;13.90;6.68;;;4.70;99.90;;;;;;5027107;28;20029;-75
2021/12/24 05:46:25;;;;;;;11.88;5.90;;;4.70;99.90;;;;;;5027262;28;20083;-74
2021/12/24 05:48:51;;;;;;;11.57;6.30;;;4.60;99.90;;;;;;5031435;28;20033;-75
2021/12/24 05:51:16;;;;;;;13.25;6.88;;;4.70;99.90;;;;;;5024760;28;20033;-75
2021/12/24 05:53:42;;;;;;;16.98;7.40;;;4.60;99.90;;;;;;5036027;28;20028;-75
2021/12/24 05:56:07;;;;;;;13.77;6.75;;;4.60;99.90;;;;;;5031681;28;20071;-77
2021/12/24 05:58:33;;;;;;;12.75;6.53;;;4.60;99.90;;;;;;5030868;28;20017;-76
2021/12/24 06:00:58;;;;;;;13.02;6.55;;;4.70;99.90;;;;;;5024082;28;20049;-75
2021/12/24 06:03:24;;;;;;;13.43;6.03;;;4.70;99.90;;;;;;5027371;28;20036;-76
2021/12/24 06:05:50;;;;;;;14.15;6.57;;;4.60;99.90;;;;;;5039879;28;20052;-73
2021/12/24 06:08:16;;;;;;;13.52;6.50;;;4.60;99.90;;;;;;5018523;28;20055;-74
2021/12/24 06:10:42;;;;;;;13.80;6.53;;;4.60;99.90;;;;;;5039830;28;20029;-74
2021/12/24 06:13:08;;;;;;;12.13;5.78;;;4.60;99.90;;;;;;5035092;28;20370;-73
2021/12/24 06:15:42;;;;;;;12.68;6.07;;;4.60;99.90;;;;;;5039660;28;20106;-73
2021/12/24 06:18:24;;;;;;;13.93;6.07;;;4.60;99.90;;;;;;5024915;28;20080;-75
2021/12/24 06:20:51;;;;;;;14.25;7.03;;;4.60;99.90;;;;;;5026182;28;20030;-75
2021/12/24 06:23:19;;;;;;;11.27;6.32;;;4.60;99.90;;;;;;5030500;28;20032;-73
2021/12/24 06:25:45;;;;;;;12.63;5.63;;;4.50;99.90;;;;;;5039060;28;20122;-83
2021/12/24 06:28:10;;;;;;;10.60;5.03;;;4.60;99.90;;;;;;5029107;28;20183;-75
2021/12/24 06:30:37;;;;;;;12.57;6.47;;;4.60;99.90;;;;;;5055806;28;20040;-77
2021/12/24 06:33:03;;;;;;;13.93;6.60;;;4.50;99.90;;;;;;5027697;28;20024;-73
2021/12/24 06:35:28;;;;;;;12.30;5.85;;;4.50;99.90;;;;;;5030723;28;20115;-79
2021/12/24 06:37:56;;;;;;;12.88;6.07;;;4.50;99.90;;;;;;5033913;28;20032;-75
2021/12/24 06:40:22;;;;;;;14.30;6.55;;;4.50;99.90;;;;;;5030359;28;20491;-73
2021/12/24 06:42:48;;;;;;;13.65;6.00;;;4.50;99.90;;;;;;5032602;28;20060;-75
2021/12/24 06:45:13;;;;;;;11.02;5.95;;;4.50;99.90;;;;;;5036912;28;20041;-77
2021/12/24 06:47:39;;;;;;;12.43;5.50;;;4.40;99.90;;;;;;5031891;28;20407;-76
2021/12/24 06:50:06;;;;;;;12.18;6.10;;;4.40;99.90;;;;;;5050006;28;20195;-73
2021/12/24 06:52:32;;;;;;;10.50;5.75;;;4.50;99.90;;;;;;5028245;28;20116;-74
2021/12/24 06:54:57;;;;;;;12.38;6.05;;;4.40;99.90;;;;;;5030363;28;20108;-76
2021/12/24 06:57:25;;;;;;;13.25;6.45;;;4.40;99.90;;;;;;5030913;28;20017;-78
2021/12/24 06:59:50;;;;;;;13.27;6.40;;;4.40;99.90;;;;;;5033514;28;20029;-76
2021/12/24 07:02:16;;;;;;;10.80;6.50;;;4.40;99.90;;;;;;5029152;28;20036;-78
2021/12/24 07:04:42;;;;;;;10.82;6.53;;;4.40;99.90;;;;;;5037927;28;20424;-74
2021/12/24 07:07:07;;;;;;;12.70;6.95;;;4.40;99.90;;;;;;5005328;28;20105;-74
2021/12/24 07:09:33;;;;;;;11.57;6.40;;;4.40;99.90;;;;;;5034012;28;20486;-78
2021/12/24 07:11:58;;;;;;;13.38;6.88;;;4.30;99.90;;;;;;5025261;28;20390;-75
2021/12/24 07:14:24;;;;;;;14.68;7.53;;;4.30;99.90;;;;;;5030359;28;20136;-77
2021/12/24 07:16:50;;;;;;;13.35;7.15;;;4.30;99.90;;;;;;5025258;28;20025;-75
2021/12/24 07:19:16;;;;;;;15.73;8.15;;;4.20;99.90;;;;;;5024411;28;20111;-76
2021/12/24 07:21:42;;;;;;;13.55;7.30;;;4.20;99.90;;;;;;5024674;28;20037;-75
2021/12/24 07:24:08;;;;;;;13.35;7.32;;;4.20;99.90;;;;;;5041168;28;20025;-77
2021/12/24 07:26:34;;;;;;;13.65;7.18;;;4.20;99.90;;;;;;5033609;28;20037;-77
2021/12/24 07:29:00;;;;;;;14.07;8.32;;;4.20;99.90;;;;;;5039866;28;20085;-78
2021/12/24 07:31:26;;;;;;;15.63;8.35;;;4.20;99.90;;;;;;5033315;28;20033;-77
2021/12/24 07:33:52;;;;;;;15.55;7.97;;;4.10;99.90;;;;;;5045663;28;20019;-74
2021/12/24 07:36:17;;;;;;;17.65;8.20;;;4.10;99.90;;;;;;5034124;28;20087;-74
2021/12/24 07:38:43;;;;;;;16.30;8.35;;;4.10;99.90;;;;;;5036615;28;20036;-74
2021/12/24 07:41:08;;;;;;;15.57;8.13;;;4.10;99.90;;;;;;5028947;28;20037;-77
2021/12/24 07:43:34;;;;;;;20.15;9.07;;;4.10;99.90;;;;;;5037443;28;20032;-74
2021/12/24 07:45:59;;;;;;;17.00;8.25;;;4.10;99.90;;;;;;5032215;28;20045;-74
2021/12/24 07:48:29;;;;;;;15.30;8.45;;;4.00;99.90;;;;;;5032240;28;20093;-78
2021/12/24 07:53:23;;;;;;;18.27;8.60;;;3.90;99.90;;;;;;5034173;28;20029;-77
2021/12/24 07:55:49;;;;;;;17.98;8.70;;;3.90;99.90;;;;;;5035219;28;20025;-75
2021/12/24 07:58:17;;;;;;;17.15;9.02;;;3.80;99.90;;;;;;5032800;28;20029;-75
2021/12/24 08:00:44;;;;;;;16.85;9.27;;;3.80;99.90;;;;;;5052335;28;20140;-74
2021/12/24 08:03:10;;;;;;;18.73;8.98;;;3.80;99.90;;;;;;5036457;28;20521;-74
2021/12/24 08:05:39;;;;;;;17.88;8.80;;;3.80;99.90;;;;;;5049906;28;20150;-74
2021/12/24 08:08:05;;;;;;;15.15;8.50;;;3.70;99.90;;;;;;5007915;28;20164;-74
2021/12/24 08:10:33;;;;;;;17.45;8.48;;;3.70;99.90;;;;;;5026511;28;20089;-74
2021/12/24 08:12:59;;;;;;;14.57;7.70;;;3.70;99.90;;;;;;5036589;28;20112;-74
2021/12/24 08:15:25;;;;;;;13.73;7.35;;;3.60;99.90;;;;;;5029672;28;20141;-77
2021/12/24 08:17:50;;;;;;;15.48;8.00;;;3.60;99.90;;;;;;5037550;28;20108;-73
2021/12/24 08:20:21;;;;;;;15.07;7.82;;;3.60;99.90;;;;;;5043849;28;20349;-74
2021/12/24 08:22:49;;;;;;;;;;;3.60;99.90;;;;;;5029457;28;20158;-73
2021/12/24 08:25:14;;;;;;;18.15;7.32;;;3.60;99.90;;;;;;5043734;28;19927;-77
2021/12/24 08:27:40;;;;;;;17.50;7.90;;;3.50;99.90;;;;;;5029178;28;20783;-74
2021/12/24 08:30:07;;;;;;;18.15;8.43;;;3.50;99.90;;;;;;5033773;28;20250;-75
2021/12/24 08:32:37;;;;;;;19.30;7.40;;;3.50;99.90;;;;;;5033558;28;20044;-74
2021/12/24 08:35:04;;;;;;;23.03;8.37;;;3.40;99.90;;;;;;5029195;28;20374;-74
2021/12/24 08:37:30;;;;;;;16.00;7.25;;;3.40;99.90;;;;;;5042419;28;20397;-74
2021/12/24 08:39:56;;;;;;;16.58;7.40;;;3.30;99.90;;;;;;5032670;28;20024;-75
2021/12/24 08:42:21;;;;;;;16.45;7.70;;;3.30;99.90;;;;;;5032557;28;20068;-76
2021/12/24 08:44:47;;;;;;;15.57;6.95;;;3.30;99.90;;;;;;5039507;28;20160;-75
2021/12/24 08:47:12;;;;;;;13.63;6.80;;;3.30;99.90;;;;;;5027284;28;20037;-74
2021/12/24 08:49:38;;;;;;;13.00;6.60;;;3.30;99.90;;;;;;5043222;28;20029;-76
2021/12/24 08:52:04;;;;;;;13.80;6.13;;;3.30;99.90;;;;;;5036281;28;20112;-75
2021/12/24 08:54:29;;;;;;;11.52;5.80;;;3.20;99.90;;;;;;5033441;28;20143;-75
2021/12/24 08:56:55;;;;;;;10.35;6.13;;;3.10;99.90;;;;;;5026905;28;20741;-75
2021/12/24 08:59:23;;;;;;;13.25;5.85;;;3.10;99.90;;;;;;5039148;28;20040;-76
2021/12/24 09:01:49;;;;;;;13.05;6.03;;;3.10;99.90;;;;;;5033861;28;20366;-74
2021/12/24 09:04:14;;;;;;;8.73;5.45;;;3.10;99.90;;;;;;5039103;28;20037;-74
2021/12/24 09:06:40;;;;;;;10.18;5.65;;;3.00;99.90;;;;;;5033813;28;20036;-78
2021/12/24 09:09:08;;;;;;;9.90;5.68;;;2.90;99.90;;;;;;5008948;28;20053;-78
2021/12/24 09:11:34;;;;;;;8.45;5.13;;;2.90;99.90;;;;;;5035410;28;20409;-75
2021/12/24 09:13:59;;;;;;;10.80;5.60;;;2.90;99.90;;;;;;5034108;28;20476;-75
2021/12/24 09:16:25;;;;;;;11.23;4.85;;;2.80;99.90;;;;;;5035281;28;20056;-75
2021/12/24 09:18:59;;;;;;;9.30;4.63;;;2.80;99.90;;;;;;5041993;28;20028;-77
2021/12/24 09:21:24;;;;;;;8.65;4.78;;;2.80;99.90;;;;;;5040675;28;20047;-77
2021/12/24 09:23:51;;;;;;;9.02;4.80;;;2.70;99.90;;;;;;5036579;28;20026;-75
2021/12/24 09:26:23;;;;;;;8.20;4.43;;;2.80;99.90;;;;;;5040245;28;20477;-77
2021/12/24 09:28:49;;;;;;;10.43;5.50;;;2.80;99.90;;;;;;5025684;28;20029;-74
2021/12/24 09:31:14;;;;;;;8.05;5.25;;;2.80;99.90;;;;;;5032427;28;20790;-74
2021/12/24 09:33:40;;;;;;;7.90;4.60;;;2.80;99.90;;;;;;5039044;28;20489;-74
2021/12/24 09:36:06;;;;;;;7.95;4.88;;;2.70;99.90;;;;;;5038127;28;20127;-75
2021/12/24 09:38:32;;;;;;;10.95;5.47;;;2.80;99.90;;;;;;5040212;28;20028;-79
2021/12/24 09:40:57;;;;;;;9.35;5.63;;;2.70;99.90;;;;;;5036628;28;20021;-75
2021/12/24 09:43:24;;;;;;;8.70;5.30;;;2.70;99.90;;;;;;5032637;28;20032;-74
2021/12/24 09:45:50;;;;;;;9.93;5.53;;;2.60;99.90;;;;;;5043446;28;20112;-77
2021/12/24 09:48:16;;;;;;;9.93;5.15;;;2.60;99.90;;;;;;5031831;28;20203;-76
2021/12/24 09:50:42;;;;;;;8.20;5.32;;;2.60;99.90;;;;;;5027729;28;20044;-75
2021/12/24 09:53:07;;;;;;;8.82;4.88;;;2.50;99.80;;;;;;5037811;28;20024;-77
2021/12/24 09:55:33;;;;;;;7.65;5.07;;;2.40;99.80;;;;;;5027624;28;20021;-77
2021/12/24 09:57:59;;;;;;;8.93;4.63;;;2.30;99.80;;;;;;5027945;28;20386;-78
2021/12/24 10:00:26;;;;;;;7.53;4.72;;;2.20;99.80;;;;;;5031779;28;20050;-74
2021/12/24 10:02:55;;;;;;;7.10;4.25;;;2.20;99.80;;;;;;5034134;28;20029;-75
2021/12/24 10:05:34;;;;;;;7.15;4.38;;;2.20;99.80;;;;;;5029325;28;20075;-76
2021/12/24 10:08:21;;;;;;;6.53;4.28;;;2.10;99.80;;;;;;5016444;28;20045;-75
2021/12/24 10:10:50;;;;;;;6.07;3.83;;;2.10;99.80;;;;;;5030857;28;20036;-75
2021/12/24 10:13:46;;;;;;;8.55;4.47;;;2.10;99.70;;;;;;5041710;28;20032;-78
2021/12/24 10:16:18;;;;;;;8.95;4.70;;;2.00;99.70;;;;;;5018801;28;20037;-74
2021/12/24 10:18:51;;;;;;;7.45;4.95;;;2.00;99.80;;;;;;5053127;28;20481;-75
2021/12/24 10:21:19;;;;;;;5.78;3.95;;;2.10;99.80;;;;;;5035835;28;20082;-77
2021/12/24 10:23:49;;;;;;;7.15;3.85;;;2.00;99.80;;;;;;5032447;28;20048;-76
2021/12/24 10:26:29;;;;;;;6.73;4.23;;;1.90;99.80;;;;;;5036143;28;20036;-76
2021/12/24 10:29:03;;;;;;;7.90;5.18;;;2.00;99.80;;;;;;5041392;28;20028;-74
2021/12/24 10:31:40;;;;;;;9.70;6.25;;;1.90;99.80;;;;;;5035449;28;20037;-75
2021/12/24 10:34:08;;;;;;;7.97;5.03;;;1.90;99.70;;;;;;5035217;28;20025;-75
2021/12/24 10:36:59;;;;;;;9.88;5.68;;;1.90;99.80;;;;;;5033434;28;20027;-73
2021/12/24 10:39:28;;;;;;;8.68;5.65;;;1.80;99.70;;;;;;5030141;28;20032;-73
2021/12/24 10:41:56;;;;;;;9.82;5.80;;;1.80;99.70;;;;;;5046802;28;20064;-74
2021/12/24 10:44:27;;;;;;;8.82;5.78;;;1.70;99.70;;;;;;5040322;28;20064;-74
2021/12/24 10:46:57;;;;;;;9.30;5.63;;;1.60;99.70;;;;;;5031886;28;20021;-73
2021/12/24 10:49:37;;;;;;;9.02;5.85;;;1.60;99.70;;;;;;5042365;28;20099;-77
2021/12/24 10:52:14;;;;;;;10.13;5.80;;;1.40;99.60;;;;;;5029723;28;20025;-76
2021/12/24 10:54:53;;;;;;;12.55;6.70;;;1.40;99.60;;;;;;5032679;28;20497;-73
2021/12/24 10:57:24;;;;;;;12.05;6.50;;;1.40;99.60;;;;;;5029726;28;20032;-73
2021/12/24 10:59:54;;;;;;;10.65;6.78;;;1.40;99.70;;;;;;5033707;28;20029;-76
2021/12/24 11:02:20;;;;;;;10.75;6.55;;;1.30;99.60;;;;;;5030021;28;20036;-77
2021/12/24 11:04:46;;;;;;;9.88;6.68;;;1.40;99.70;;;;;;5031442;28;20018;-74
2021/12/24 11:07:32;;;;;;;12.15;7.90;;;1.30;99.70;;;;;;5035720;28;20075;-74
2021/12/24 11:10:22;;;;;;;10.15;7.05;;;1.20;99.60;;;;;;5009387;28;21347;-76
2021/12/24 11:12:57;;;;;;;12.02;7.60;;;1.10;99.60;;;;;;5032046;28;20037;-73
2021/12/24 11:15:41;;;;;;;12.10;6.53;;;1.00;99.60;;;;;;5033403;28;20366;-74
2021/12/24 11:18:28;;;;;;;11.68;7.22;;;1.00;99.60;;;;;;5033790;28;20025;-77
2021/12/24 11:20:56;;;;;;;14.63;8.00;;;1.00;99.60;;;;;;5035506;28;20025;-74
2021/12/24 11:23:25;;;;;;;12.35;7.70;;;1.00;99.70;;;;;;5044226;28;20123;-75
2021/12/24 11:25:54;;;;;;;13.98;8.80;;;0.90;99.70;;;;;;5036308;28;20060;-74
2021/12/24 11:28:20;;;;;;;14.80;9.48;;;1.00;99.70;;;;;;5034191;28;20474;-74
2021/12/24 11:30:49;;;;;;;17.20;10.40;;;1.00;99.70;;;;;;5028809;28;20052;-75
2021/12/24 11:33:36;;;;;;;16.55;9.90;;;1.00;99.70;;;;;;5021845;28;20505;-81
2021/12/24 11:36:05;;;;;;;12.10;7.90;;;1.00;99.70;;;;;;5029463;28;20072;-75
2021/12/24 11:38:34;;;;;;;12.30;6.35;;;1.00;99.70;;;;;;5040644;28;20067;-75
2021/12/24 11:41:01;;;;;;;14.38;6.57;;;1.00;99.70;;;;;;5032646;28;20189;-75
2021/12/24 11:43:29;;;;;;;11.43;7.28;;;1.00;99.70;;;;;;5037124;28;20049;-76
2021/12/24 11:46:00;;;;;;;12.18;7.60;;;1.00;99.70;;;;;;5033413;28;20029;-76
2021/12/24 11:48:27;;;;;;;;;;;1.00;99.70;;;;;;5040902;28;20454;-73
2021/12/24 11:50:54;;;;;;;12.55;7.00;;;1.00;99.70;;;;;;5030869;28;19921;-76
2021/12/24 11:53:20;;;;;;;14.80;7.45;;;1.00;99.70;;;;;;5028437;28;20117;-75
2021/12/24 11:55:48;;;;;;;13.18;7.63;;;1.00;99.70;;;;;;5033916;28;20027;-75
2021/12/24 11:58:25;;;;;;;16.77;7.88;;;1.00;99.60;;;;;;5032732;28;20436;-76
2021/12/24 12:00:55;;;;;;;13.60;7.60;;;0.90;99.60;;;;;;5037747;28;20052;-76
2021/12/24 12:03:49;;;;;;;13.23;7.38;;;1.00;99.60;;;;;;5034635;28;20045;-77
2021/12/24 12:06:23;;;;;;;12.30;7.70;;;1.00;99.60;;;;;;5037150;28;20051;-76
2021/12/24 12:09:06;;;;;;;10.45;7.05;;;0.90;99.60;;;;;;5057118;28;20602;-77
2021/12/24 12:11:35;;;;;;;11.02;6.63;;;0.90;99.60;;;;;;5057130;28;20464;-76
2021/12/24 12:14:17;;;;;;;12.02;7.80;;;1.00;99.60;;;;;;5038950;28;20044;-77
2021/12/24 12:16:43;;;;;;;11.52;7.25;;;1.00;99.60;;;;;;5037357;28;20021;-75
2021/12/24 12:19:17;;;;;;;11.18;6.38;;;1.00;99.60;;;;;;5045640;28;20033;-75
2021/12/24 12:22:11;;;;;;;10.65;6.70;;;1.00;99.50;;;;;;5039542;28;20339;-76
2021/12/24 12:27:17;;;;;;;12.63;7.22;;;1.10;99.50;;;;;;5030078;28;20037;-75
2021/12/24 12:29:44;;;;;;;13.32;8.38;;;1.10;99.50;;;;;;5041564;28;20265;-75
2021/12/24 12:32:13;;;;;;;14.95;8.13;;;1.10;99.50;;;;;;5036367;28;20105;-75
2021/12/24 12:34:48;;;;;;;13.75;7.35;;;1.10;99.50;;;;;;5035558;28;20680;-74
2021/12/24 12:37:31;;;;;;;13.27;7.53;;;1.10;99.50;;;;;;5036786;28;20170;-74
2021/12/24 12:40:12;;;;;;;14.27;8.07;;;1.10;99.50;;;;;;5039392;28;20027;-74
2021/12/24 12:42:54;;;;;;;11.88;7.30;;;1.10;99.40;;;;;;5035424;28;20033;-75
2021/12/24 12:45:42;;;;;;;12.80;7.60;;;1.10;99.40;;;;;;5038901;28;20369;-75
2021/12/24 12:48:22;;;;;;;12.63;8.40;;;1.10;99.40;;;;;;5045773;28;20036;-80
2021/12/24 12:50:54;;;;;;;15.60;9.48;;;1.10;99.40;;;;;;5040084;28;20039;-76
2021/12/24 12:53:33;;;;;;;16.48;9.50;;;1.10;99.40;;;;;;5040368;28;20037;-78
2021/12/24 12:56:14;;;;;;;17.88;11.43;;;1.10;99.40;;;;;;5036024;28;20340;-75
2021/12/24 12:59:10;;;;;;;16.58;10.80;;;1.10;99.40;;;;;;5044420;28;20468;-75
2021/12/24 13:01:52;;;;;;;17.70;9.88;;;1.10;99.40;;;;;;5038653;28;20103;-74
2021/12/24 13:04:18;;;;;;;16.08;10.77;;;1.10;99.40;;;;;;5040002;28;20102;-76
2021/12/24 13:06:45;;;;;;;17.65;12.32;;;1.10;99.40;;;;;;5036894;28;20023;-74
2021/12/24 13:09:13;;;;;;;18.25;11.77;;;1.10;99.40;;;;;;5043064;28;20586;-75
2021/12/24 13:11:41;;;;;;;18.60;10.95;;;1.10;99.40;;;;;;5040983;28;20029;-75
2021/12/24 13:14:09;;;;;;;16.60;10.63;;;1.10;99.40;;;;;;5038588;28;20021;-77
2021/12/24 13:16:42;;;;;;;16.83;10.52;;;1.10;99.40;;;;;;5031029;28;20106;-75
2021/12/24 13:19:53;;;;;;;17.27;9.38;;;1.10;99.40;;;;;;5032465;28;20093;-79
2021/12/24 13:25:13;;;;;;;19.42;9.38;;;1.10;99.40;;;;;;5030762;28;20033;-74
2021/12/24 13:27:44;;;;;;;18.13;9.77;;;1.10;99.30;;;;;;5038674;28;20082;-75
2021/12/24 13:30:23;;;;;;;16.58;8.65;;;1.10;99.30;;;;;;5032218;28;20081;-75
2021/12/24 13:33:04;;;;;;;16.42;9.75;;;1.00;99.30;;;;;;5049082;28;20516;-75
2021/12/24 13:35:41;;;;;;;17.33;10.88;;;1.00;99.30;;;;;;5044002;28;20028;-74
2021/12/24 13:38:24;;;;;;;18.65;10.90;;;1.00;99.30;;;;;;5034669;28;20021;-77
2021/12/24 13:40:50;;;;;;;23.27;12.10;;;1.00;99.30;;;;;;5030054;28;20022;-76
2021/12/24 13:43:18;;;;;;;19.55;11.85;;;1.00;99.30;;;;;;5035570;28;20091;-75
2021/12/24 13:45:48;;;;;;;21.50;13.13;;;1.00;99.30;;;;;;5038525;28;20051;-76
2021/12/24 13:48:29;;;;;;;25.23;12.63;;;1.00;99.30;;;;;;5034187;28;20087;-75
2021/12/24 13:56:14;;;;;;;26.67;13.27;;;1.00;99.30;;;;;;5031094;28;20519;-75
2021/12/24 13:58:39;;;;;;;27.13;14.07;;;1.00;99.30;;;;;;5031939;28;20069;-75
2021/12/24 14:01:05;;;;;;;25.77;14.52;;;1.00;99.30;;;;;;5027975;28;20040;-76
2021/12/24 14:03:33;;;;;;;31.90;14.52;;;1.00;99.30;;;;;;5036359;28;20039;-75
2021/12/24 14:06:03;;;;;;;27.90;13.10;;;0.90;99.30;;;;;;5031842;28;20807;-77
2021/12/24 14:08:37;;;;;;;29.25;12.48;;;0.80;99.30;;;;;;5034893;28;20029;-73
2021/12/24 14:11:12;;;;;;;20.83;13.13;;;0.80;99.20;;;;;;5036541;28;20246;-75
2021/12/24 14:13:45;;;;;;;23.05;11.40;;;0.70;99.20;;;;;;5034456;28;20113;-74
2021/12/24 14:16:30;;;;;;;24.10;12.55;;;0.70;99.20;;;;;;5032847;28;20498;-73
2021/12/24 14:19:19;;;;;;;32.22;12.27;;;0.60;99.20;;;;;;5034528;28;20227;-74
2021/12/24 14:21:46;;;;;;;34.58;13.15;;;0.60;99.20;;;;;;5033761;28;20167;-74
2021/12/24 14:24:15;;;;;;;30.52;13.25;;;0.60;99.20;;;;;;5033976;28;20070;-78
2021/12/24 14:26:44;;;;;;;36.72;13.32;;;0.60;99.20;;;;;;5044556;28;20450;-74
2021/12/24 14:29:10;;;;;;;26.90;12.40;;;0.50;99.20;;;;;;5038878;28;20020;-74
2021/12/24 14:31:53;;;;;;;24.85;11.07;;;0.50;99.20;;;;;;5029763;28;20033;-74